sensor_id;sensor_type;location;lat;lon;timestamp;pressure;altitude;pressure_sealevel;temperature;humidity
15308;BME280;7755;52.208;6.964;2023-03-11T00:03:07;100124.84;;;1.13;100.00
15308;BME280;7755;52.208;6.964;2023-03-11T00:07:12;100130.00;;;1.14;100.00
15308;BME280;7755;52.208;6.964;2023-03-11T00:11:14;100127.97;;;1.16;100.00
15308;BME280;7755;52.208;6.964;2023-03-11T00:15:18;100132.31;;;1.17;100.00
15308;BME280;7755;52.208;6.964;2023-03-11T00:19:22;100144.66;;;1.18;100.00
15308;BME280;7755;52.208;6.964;2023-03-11T00:23:26;100146.53;;;1.18;100.00
15308;BME280;7755;52.208;6.964;2023-03-11T00:27:29;100150.66;;;1.20;100.00
15308;BME280;7755;52.208;6.964;2023-03-11T00:31:32;100166.09;;;1.18;100.00
15308;BME280;7755;52.208;6.964;2023-03-11T00:35:36;100171.88;;;1.22;100.00
15308;BME280;7755;52.208;6.964;2023-03-11T00:39:38;100169.78;;;1.17;100.00
15308;BME280;7755;52.208;6.964;2023-03-11T00:43:41;100173.84;;;1.13;100.00
15308;BME280;7755;52.208;6.964;2023-03-11T00:47:44;100176.72;;;1.12;100.00
15308;BME280;7755;52.208;6.964;2023-03-11T00:51:49;100185.31;;;1.07;100.00
15308;BME280;7755;52.208;6.964;2023-03-11T00:55:51;100195.66;;;1.10;100.00
15308;BME280;7755;52.208;6.964;2023-03-11T00:59:54;100205.72;;;1.08;100.00
15308;BME280;7755;52.208;6.964;2023-03-11T01:03:58;100201.22;;;1.08;100.00
15308;BME280;7755;52.208;6.964;2023-03-11T01:08:03;100210.25;;;1.07;100.00
15308;BME280;7755;52.208;6.964;2023-03-11T01:12:06;100211.28;;;1.06;100.00
15308;BME280;7755;52.208;6.964;2023-03-11T01:16:08;100228.00;;;1.08;100.00
15308;BME280;7755;52.208;6.964;2023-03-11T01:20:12;100239.69;;;1.07;100.00
15308;BME280;7755;52.208;6.964;2023-03-11T01:24:16;100239.88;;;1.06;100.00
15308;BME280;7755;52.208;6.964;2023-03-11T01:28:19;100243.03;;;1.09;100.00
15308;BME280;7755;52.208;6.964;2023-03-11T01:32:22;100248.00;;;1.13;100.00
15308;BME280;7755;52.208;6.964;2023-03-11T01:36:25;100244.69;;;1.11;100.00
15308;BME280;7755;52.208;6.964;2023-03-11T01:40:31;100251.69;;;1.12;100.00
15308;BME280;7755;52.208;6.964;2023-03-11T01:44:38;100247.91;;;1.06;100.00
15308;BME280;7755;52.208;6.964;2023-03-11T01:48:45;100238.22;;;1.05;100.00
15308;BME280;7755;52.208;6.964;2023-03-11T01:52:48;100253.47;;;1.04;100.00
15308;BME280;7755;52.208;6.964;2023-03-11T01:56:53;100248.13;;;1.04;100.00
15308;BME280;7755;52.208;6.964;2023-03-11T02:00:58;100252.66;;;1.04;100.00
15308;BME280;7755;52.208;6.964;2023-03-11T02:05:02;100264.59;;;1.08;100.00
15308;BME280;7755;52.208;6.964;2023-03-11T02:09:05;100268.78;;;1.11;100.00
15308;BME280;7755;52.208;6.964;2023-03-11T02:13:10;100270.81;;;1.08;100.00
15308;BME280;7755;52.208;6.964;2023-03-11T02:17:14;100269.13;;;1.07;100.00
15308;BME280;7755;52.208;6.964;2023-03-11T02:21:22;100267.47;;;1.06;100.00
15308;BME280;7755;52.208;6.964;2023-03-11T02:25:30;100268.50;;;1.05;100.00
15308;BME280;7755;52.208;6.964;2023-03-11T02:29:38;100271.94;;;0.99;100.00
15308;BME280;7755;52.208;6.964;2023-03-11T02:33:44;100278.31;;;0.98;100.00
15308;BME280;7755;52.208;6.964;2023-03-11T02:37:50;100276.84;;;0.96;100.00
15308;BME280;7755;52.208;6.964;2023-03-11T02:41:55;100276.84;;;0.96;100.00
15308;BME280;7755;52.208;6.964;2023-03-11T02:46:00;100279.34;;;0.97;100.00
15308;BME280;7755;52.208;6.964;2023-03-11T02:50:06;100288.38;;;0.96;100.00
15308;BME280;7755;52.208;6.964;2023-03-11T02:54:11;100296.41;;;0.96;100.00
15308;BME280;7755;52.208;6.964;2023-03-11T02:58:15;100293.53;;;0.98;100.00
15308;BME280;7755;52.208;6.964;2023-03-11T03:02:19;100297.25;;;0.97;100.00
15308;BME280;7755;52.208;6.964;2023-03-11T03:06:22;100307.75;;;0.98;100.00
15308;BME280;7755;52.208;6.964;2023-03-11T03:10:26;100310.63;;;0.97;100.00
15308;BME280;7755;52.208;6.964;2023-03-11T03:14:30;100306.84;;;0.91;100.00
15308;BME280;7755;52.208;6.964;2023-03-11T03:18:35;100322.06;;;0.91;100.00
15308;BME280;7755;52.208;6.964;2023-03-11T03:22:38;100327.78;;;0.88;100.00
15308;BME280;7755;52.208;6.964;2023-03-11T03:26:43;100322.72;;;0.93;100.00
15308;BME280;7755;52.208;6.964;2023-03-11T03:30:46;100333.41;;;0.93;100.00
15308;BME280;7755;52.208;6.964;2023-03-11T03:34:50;100335.25;;;0.92;100.00
15308;BME280;7755;52.208;6.964;2023-03-11T03:39:07;100330.75;;;0.93;100.00
15308;BME280;7755;52.208;6.964;2023-03-11T03:43:11;100340.63;;;0.92;100.00
15308;BME280;7755;52.208;6.964;2023-03-11T03:47:18;100340.25;;;0.95;100.00
15308;BME280;7755;52.208;6.964;2023-03-11T03:51:23;100338.84;;;0.99;100.00
15308;BME280;7755;52.208;6.964;2023-03-11T03:55:34;100344.41;;;0.98;100.00
15308;BME280;7755;52.208;6.964;2023-03-11T03:59:37;100345.22;;;0.98;100.00
15308;BME280;7755;52.208;6.964;2023-03-11T04:03:40;100347.91;;;0.98;100.00
15308;BME280;7755;52.208;6.964;2023-03-11T04:07:47;100346.06;;;0.99;100.00
15308;BME280;7755;52.208;6.964;2023-03-11T04:11:51;100352.03;;;1.01;100.00
15308;BME280;7755;52.208;6.964;2023-03-11T04:15:54;100363.50;;;0.95;100.00
15308;BME280;7755;52.208;6.964;2023-03-11T04:19:57;100375.06;;;0.95;100.00
15308;BME280;7755;52.208;6.964;2023-03-11T04:24:01;100375.69;;;0.97;100.00
15308;BME280;7755;52.208;6.964;2023-03-11T04:28:08;100380.22;;;0.97;100.00
15308;BME280;7755;52.208;6.964;2023-03-11T04:32:11;100394.78;;;0.94;100.00
15308;BME280;7755;52.208;6.964;2023-03-11T04:36:15;100390.00;;;0.90;100.00
15308;BME280;7755;52.208;6.964;2023-03-11T04:40:19;100389.72;;;0.85;100.00
15308;BME280;7755;52.208;6.964;2023-03-11T04:44:22;100392.31;;;0.78;100.00
15308;BME280;7755;52.208;6.964;2023-03-11T04:48:25;100395.28;;;0.68;100.00
15308;BME280;7755;52.208;6.964;2023-03-11T04:52:28;100398.94;;;0.67;100.00
15308;BME280;7755;52.208;6.964;2023-03-11T04:56:32;100403.94;;;0.70;100.00
15308;BME280;7755;52.208;6.964;2023-03-11T05:00:37;100414.81;;;0.69;100.00
15308;BME280;7755;52.208;6.964;2023-03-11T05:04:43;100424.94;;;0.59;100.00
15308;BME280;7755;52.208;6.964;2023-03-11T05:08:48;100423.00;;;0.52;100.00
15308;BME280;7755;52.208;6.964;2023-03-11T05:12:52;100424.84;;;0.52;100.00
15308;BME280;7755;52.208;6.964;2023-03-11T05:16:58;100434.06;;;0.49;100.00
15308;BME280;7755;52.208;6.964;2023-03-11T05:21:03;100438.59;;;0.49;100.00
15308;BME280;7755;52.208;6.964;2023-03-11T05:25:08;100453.50;;;0.43;100.00
15308;BME280;7755;52.208;6.964;2023-03-11T05:29:13;100464.75;;;0.39;100.00
15308;BME280;7755;52.208;6.964;2023-03-11T05:33:16;100458.44;;;0.32;100.00
15308;BME280;7755;52.208;6.964;2023-03-11T05:37:20;100463.59;;;0.33;100.00
15308;BME280;7755;52.208;6.964;2023-03-11T05:41:24;100463.69;;;0.25;100.00
15308;BME280;7755;52.208;6.964;2023-03-11T05:45:28;100473.91;;;0.21;100.00
15308;BME280;7755;52.208;6.964;2023-03-11T05:49:33;100471.59;;;0.18;100.00
15308;BME280;7755;52.208;6.964;2023-03-11T05:53:37;100473.25;;;0.19;100.00
15308;BME280;7755;52.208;6.964;2023-03-11T05:57:40;100475.75;;;0.21;100.00
15308;BME280;7755;52.208;6.964;2023-03-11T06:01:44;100475.38;;;0.24;100.00
15308;BME280;7755;52.208;6.964;2023-03-11T06:05:48;100479.25;;;0.21;100.00
15308;BME280;7755;52.208;6.964;2023-03-11T06:09:52;100487.28;;;0.21;100.00
15308;BME280;7755;52.208;6.964;2023-03-11T06:13:56;100490.41;;;0.25;100.00
15308;BME280;7755;52.208;6.964;2023-03-11T06:18:03;100500.09;;;0.26;100.00
15308;BME280;7755;52.208;6.964;2023-03-11T06:22:08;100493.09;;;0.25;100.00
15308;BME280;7755;52.208;6.964;2023-03-11T06:26:13;100505.00;;;0.22;100.00
15308;BME280;7755;52.208;6.964;2023-03-11T06:30:18;100515.69;;;0.22;100.00
15308;BME280;7755;52.208;6.964;2023-03-11T06:34:39;100517.53;;;0.22;100.00
15308;BME280;7755;52.208;6.964;2023-03-11T06:38:43;100520.53;;;0.19;100.00
15308;BME280;7755;52.208;6.964;2023-03-11T06:42:48;100530.94;;;0.14;100.00
15308;BME280;7755;52.208;6.964;2023-03-11T06:46:52;100532.94;;;0.12;100.00
15308;BME280;7755;52.208;6.964;2023-03-11T06:50:58;100539.94;;;0.13;100.00
15308;BME280;7755;52.208;6.964;2023-03-11T06:55:04;100547.31;;;0.11;100.00
15308;BME280;7755;52.208;6.964;2023-03-11T06:59:07;100558.38;;;0.08;100.00
15308;BME280;7755;52.208;6.964;2023-03-11T07:03:10;100566.22;;;0.09;100.00
15308;BME280;7755;52.208;6.964;2023-03-11T07:07:14;100573.88;;;0.12;100.00
15308;BME280;7755;52.208;6.964;2023-03-11T07:11:19;100579.06;;;0.14;100.00
15308;BME280;7755;52.208;6.964;2023-03-11T07:15:24;100588.75;;;0.15;100.00
15308;BME280;7755;52.208;6.964;2023-03-11T07:19:27;100585.06;;;0.16;100.00
15308;BME280;7755;52.208;6.964;2023-03-11T07:23:32;100589.03;;;0.20;100.00
15308;BME280;7755;52.208;6.964;2023-03-11T07:27:36;100594.16;;;0.30;100.00
15308;BME280;7755;52.208;6.964;2023-03-11T07:31:40;100602.31;;;0.36;100.00
15308;BME280;7755;52.208;6.964;2023-03-11T07:35:43;100591.09;;;0.41;100.00
15308;BME280;7755;52.208;6.964;2023-03-11T07:39:47;100616.00;;;0.41;100.00
15308;BME280;7755;52.208;6.964;2023-03-11T07:43:52;100625.69;;;0.42;100.00
15308;BME280;7755;52.208;6.964;2023-03-11T07:47:56;100620.16;;;0.44;100.00
15308;BME280;7755;52.208;6.964;2023-03-11T07:51:58;100635.00;;;0.46;100.00
15308;BME280;7755;52.208;6.964;2023-03-11T07:56:03;100642.88;;;0.48;100.00
15308;BME280;7755;52.208;6.964;2023-03-11T08:00:09;100645.66;;;0.54;100.00
15308;BME280;7755;52.208;6.964;2023-03-11T08:04:13;100657.84;;;0.57;100.00
15308;BME280;7755;52.208;6.964;2023-03-11T08:08:17;100655.00;;;0.59;100.00
15308;BME280;7755;52.208;6.964;2023-03-11T08:12:22;100673.00;;;0.65;100.00
15308;BME280;7755;52.208;6.964;2023-03-11T08:16:25;100675.50;;;0.66;100.00
15308;BME280;7755;52.208;6.964;2023-03-11T08:20:28;100678.03;;;0.68;100.00
15308;BME280;7755;52.208;6.964;2023-03-11T08:24:32;100679.81;;;0.75;100.00
15308;BME280;7755;52.208;6.964;2023-03-11T08:28:37;100676.44;;;0.81;100.00
15308;BME280;7755;52.208;6.964;2023-03-11T08:32:40;100689.56;;;0.91;100.00
15308;BME280;7755;52.208;6.964;2023-03-11T08:36:43;100683.13;;;1.00;100.00
15308;BME280;7755;52.208;6.964;2023-03-11T08:40:46;100680.88;;;1.12;100.00
15308;BME280;7755;52.208;6.964;2023-03-11T08:44:50;100678.31;;;1.19;100.00
15308;BME280;7755;52.208;6.964;2023-03-11T08:48:54;100678.53;;;1.32;100.00
15308;BME280;7755;52.208;6.964;2023-03-11T08:53:00;100671.63;;;1.38;100.00
15308;BME280;7755;52.208;6.964;2023-03-11T08:57:03;100672.75;;;1.43;100.00
15308;BME280;7755;52.208;6.964;2023-03-11T09:01:09;100678.38;;;1.48;100.00
15308;BME280;7755;52.208;6.964;2023-03-11T09:05:12;100677.84;;;1.53;100.00
15308;BME280;7755;52.208;6.964;2023-03-11T09:09:15;100675.78;;;1.55;100.00
15308;BME280;7755;52.208;6.964;2023-03-11T09:13:20;100680.44;;;1.61;100.00
15308;BME280;7755;52.208;6.964;2023-03-11T09:17:25;100689.25;;;1.70;100.00
15308;BME280;7755;52.208;6.964;2023-03-11T09:21:28;100694.50;;;1.78;100.00
15308;BME280;7755;52.208;6.964;2023-03-11T09:25:31;100695.44;;;1.85;100.00
15308;BME280;7755;52.208;6.964;2023-03-11T09:29:34;100698.03;;;1.93;100.00
15308;BME280;7755;52.208;6.964;2023-03-11T09:33:42;100708.31;;;2.04;100.00
15308;BME280;7755;52.208;6.964;2023-03-11T09:37:47;100697.56;;;2.19;100.00
15308;BME280;7755;52.208;6.964;2023-03-11T09:41:52;100703.09;;;2.32;100.00
15308;BME280;7755;52.208;6.964;2023-03-11T09:46:04;100717.31;;;2.47;100.00
15308;BME280;7755;52.208;6.964;2023-03-11T09:50:21;100709.50;;;2.67;100.00
15308;BME280;7755;52.208;6.964;2023-03-11T09:54:36;100727.25;;;2.83;100.00
15308;BME280;7755;52.208;6.964;2023-03-11T09:58:43;100726.00;;;3.00;100.00
15308;BME280;7755;52.208;6.964;2023-03-11T10:02:48;100733.66;;;3.04;100.00
15308;BME280;7755;52.208;6.964;2023-03-11T10:06:56;100723.38;;;3.07;100.00
15308;BME280;7755;52.208;6.964;2023-03-11T10:11:09;100729.38;;;3.09;100.00
15308;BME280;7755;52.208;6.964;2023-03-11T10:15:19;100725.09;;;3.15;100.00
15308;BME280;7755;52.208;6.964;2023-03-11T10:19:32;100737.97;;;3.19;100.00
15308;BME280;7755;52.208;6.964;2023-03-11T10:23:54;100737.56;;;3.22;100.00
15308;BME280;7755;52.208;6.964;2023-03-11T10:28:04;100742.31;;;3.20;100.00
15308;BME280;7755;52.208;6.964;2023-03-11T10:32:16;100746.94;;;3.26;100.00
15308;BME280;7755;52.208;6.964;2023-03-11T10:36:25;100750.88;;;3.31;100.00
15308;BME280;7755;52.208;6.964;2023-03-11T10:40:35;100752.66;;;3.45;100.00
15308;BME280;7755;52.208;6.964;2023-03-11T10:44:43;100752.63;;;3.60;100.00
15308;BME280;7755;52.208;6.964;2023-03-11T10:48:49;100749.72;;;3.61;99.12
15308;BME280;7755;52.208;6.964;2023-03-11T10:53:07;100757.66;;;3.69;100.00
15308;BME280;7755;52.208;6.964;2023-03-11T10:57:24;100753.41;;;3.81;98.97
15308;BME280;7755;52.208;6.964;2023-03-11T11:01:28;100745.81;;;3.92;97.07
15308;BME280;7755;52.208;6.964;2023-03-11T11:05:34;100742.44;;;4.11;99.69
15308;BME280;7755;52.208;6.964;2023-03-11T11:09:38;100748.75;;;4.31;98.28
15308;BME280;7755;52.208;6.964;2023-03-11T11:13:54;100751.06;;;4.34;96.29
15308;BME280;7755;52.208;6.964;2023-03-11T11:18:01;100743.03;;;4.41;95.78
15308;BME280;7755;52.208;6.964;2023-03-11T11:22:12;100744.34;;;4.58;95.71
15308;BME280;7755;52.208;6.964;2023-03-11T11:26:20;100738.63;;;4.75;93.86
15308;BME280;7755;52.208;6.964;2023-03-11T11:30:25;100734.94;;;4.89;92.49
15308;BME280;7755;52.208;6.964;2023-03-11T11:34:31;100736.63;;;5.03;91.90
15308;BME280;7755;52.208;6.964;2023-03-11T11:38:34;100739.56;;;5.08;88.93
15308;BME280;7755;52.208;6.964;2023-03-11T11:42:40;100738.97;;;5.26;88.58
15308;BME280;7755;52.208;6.964;2023-03-11T11:46:51;100749.78;;;5.46;88.88
15308;BME280;7755;52.208;6.964;2023-03-11T11:50:59;100742.72;;;5.52;85.52
15308;BME280;7755;52.208;6.964;2023-03-11T11:55:06;100740.03;;;5.52;85.16
15308;BME280;7755;52.208;6.964;2023-03-11T11:59:19;100732.34;;;5.62;86.50
15308;BME280;7755;52.208;6.964;2023-03-11T12:08:12;100734.44;;;5.73;83.18
15308;BME280;7755;52.208;6.964;2023-03-11T12:12:24;100743.13;;;5.75;83.04
15308;BME280;7755;52.208;6.964;2023-03-11T12:16:37;100737.56;;;5.77;82.32
15308;BME280;7755;52.208;6.964;2023-03-11T12:20:45;100754.34;;;5.85;82.04
15308;BME280;7755;52.208;6.964;2023-03-11T12:25:00;100750.41;;;5.88;78.01
15308;BME280;7755;52.208;6.964;2023-03-11T12:29:12;100750.81;;;5.71;76.94
15308;BME280;7755;52.208;6.964;2023-03-11T12:33:28;100756.00;;;5.73;76.36
15308;BME280;7755;52.208;6.964;2023-03-11T12:37:35;100755.59;;;5.96;78.56
15308;BME280;7755;52.208;6.964;2023-03-11T12:41:39;100754.75;;;6.15;77.85
15308;BME280;7755;52.208;6.964;2023-03-11T12:45:47;100753.50;;;6.31;78.05
15308;BME280;7755;52.208;6.964;2023-03-11T12:49:52;100755.75;;;6.41;77.96
15308;BME280;7755;52.208;6.964;2023-03-11T12:53:57;100747.78;;;6.66;77.81
15308;BME280;7755;52.208;6.964;2023-03-11T13:02:54;100742.63;;;6.96;77.24
15308;BME280;7755;52.208;6.964;2023-03-11T13:07:13;100741.28;;;7.18;76.26
15308;BME280;7755;52.208;6.964;2023-03-11T13:11:42;100746.00;;;6.91;72.34
15308;BME280;7755;52.208;6.964;2023-03-11T13:15:45;100748.31;;;6.88;71.10
15308;BME280;7755;52.208;6.964;2023-03-11T13:19:50;100738.00;;;7.09;70.16
15308;BME280;7755;52.208;6.964;2023-03-11T13:24:39;100740.56;;;6.98;67.25
15308;BME280;7755;52.208;6.964;2023-03-11T13:29:08;100734.97;;;6.93;68.23
15308;BME280;7755;52.208;6.964;2023-03-11T13:33:22;100740.34;;;6.99;68.66
15308;BME280;7755;52.208;6.964;2023-03-11T13:37:34;100739.38;;;6.87;68.97
15308;BME280;7755;52.208;6.964;2023-03-11T13:41:43;100746.03;;;6.84;69.15
15308;BME280;7755;52.208;6.964;2023-03-11T13:45:51;100740.41;;;6.86;68.13
15308;BME280;7755;52.208;6.964;2023-03-11T13:49:59;100734.75;;;6.94;68.25
15308;BME280;7755;52.208;6.964;2023-03-11T13:54:32;100743.28;;;6.98;65.92
15308;BME280;7755;52.208;6.964;2023-03-11T13:58:37;100735.19;;;6.91;61.00
15308;BME280;7755;52.208;6.964;2023-03-11T14:02:45;100747.63;;;6.99;62.78
15308;BME280;7755;52.208;6.964;2023-03-11T14:06:50;100747.66;;;6.92;61.65
15308;BME280;7755;52.208;6.964;2023-03-11T14:10:54;100749.75;;;6.83;60.88
15308;BME280;7755;52.208;6.964;2023-03-11T14:15:00;100754.75;;;6.87;60.54
15308;BME280;7755;52.208;6.964;2023-03-11T14:19:13;100758.84;;;6.96;61.65
15308;BME280;7755;52.208;6.964;2023-03-11T14:23:18;100759.66;;;7.03;61.28
15308;BME280;7755;52.208;6.964;2023-03-11T14:27:25;100762.31;;;7.09;60.95
15308;BME280;7755;52.208;6.964;2023-03-11T14:31:31;100764.94;;;7.23;60.80
15308;BME280;7755;52.208;6.964;2023-03-11T14:35:40;100764.56;;;7.19;60.11
15308;BME280;7755;52.208;6.964;2023-03-11T14:39:43;100771.44;;;7.15;60.65
15308;BME280;7755;52.208;6.964;2023-03-11T14:43:51;100769.16;;;7.19;61.85
15308;BME280;7755;52.208;6.964;2023-03-11T14:47:59;100769.16;;;7.19;60.94
15308;BME280;7755;52.208;6.964;2023-03-11T14:52:12;100769.53;;;7.22;62.44
15308;BME280;7755;52.208;6.964;2023-03-11T14:56:20;100776.06;;;7.08;58.96
15308;BME280;7755;52.208;6.964;2023-03-11T15:00:28;100772.44;;;6.82;54.80
15308;BME280;7755;52.208;6.964;2023-03-11T15:04:39;100773.72;;;6.73;55.17
15308;BME280;7755;52.208;6.964;2023-03-11T15:08:48;100784.09;;;6.76;58.04
15308;BME280;7755;52.208;6.964;2023-03-11T15:13:07;100781.03;;;6.66;56.06
15308;BME280;7755;52.208;6.964;2023-03-11T15:17:23;100783.28;;;6.69;57.58
15308;BME280;7755;52.208;6.964;2023-03-11T15:21:44;100768.09;;;6.75;57.88
15308;BME280;7755;52.208;6.964;2023-03-11T15:25:50;100776.66;;;6.72;58.08
15308;BME280;7755;52.208;6.964;2023-03-11T15:29:54;100777.06;;;6.69;58.33
15308;BME280;7755;52.208;6.964;2023-03-11T15:34:08;100771.50;;;6.57;58.25
15308;BME280;7755;52.208;6.964;2023-03-11T15:38:18;100770.25;;;6.53;59.38
15308;BME280;7755;52.208;6.964;2023-03-11T15:42:25;100780.44;;;6.51;59.39
15308;BME280;7755;52.208;6.964;2023-03-11T15:46:28;100783.19;;;6.38;59.38
15308;BME280;7755;52.208;6.964;2023-03-11T15:50:32;100786.31;;;6.28;58.25
15308;BME280;7755;52.208;6.964;2023-03-11T15:54:55;100780.09;;;6.14;58.21
15308;BME280;7755;52.208;6.964;2023-03-11T15:59:01;100786.16;;;6.03;59.23
15308;BME280;7755;52.208;6.964;2023-03-11T16:03:04;100788.84;;;5.96;58.44
15308;BME280;7755;52.208;6.964;2023-03-11T16:07:08;100786.94;;;5.90;57.77
15308;BME280;7755;52.208;6.964;2023-03-11T16:11:11;100794.22;;;5.83;59.24
15308;BME280;7755;52.208;6.964;2023-03-11T16:15:21;100787.13;;;5.82;61.49
15308;BME280;7755;52.208;6.964;2023-03-11T16:19:25;100785.91;;;5.78;60.79
15308;BME280;7755;52.208;6.964;2023-03-11T16:23:30;100785.69;;;5.73;60.01
15308;BME280;7755;52.208;6.964;2023-03-11T16:27:53;100778.84;;;5.64;59.19
15308;BME280;7755;52.208;6.964;2023-03-11T16:31:58;100781.91;;;5.54;59.77
15308;BME280;7755;52.208;6.964;2023-03-11T16:36:14;100784.44;;;5.49;60.32
15308;BME280;7755;52.208;6.964;2023-03-11T16:40:18;100779.03;;;5.49;60.95
15308;BME280;7755;52.208;6.964;2023-03-11T16:44:22;100776.72;;;5.46;61.51
15308;BME280;7755;52.208;6.964;2023-03-11T16:48:27;100790.19;;;5.39;61.40
15308;BME280;7755;52.208;6.964;2023-03-11T16:52:31;100790.81;;;5.35;61.36
15308;BME280;7755;52.208;6.964;2023-03-11T16:56:40;100788.94;;;5.29;62.18
15308;BME280;7755;52.208;6.964;2023-03-11T17:00:45;100793.69;;;5.27;63.40
15308;BME280;7755;52.208;6.964;2023-03-11T17:04:50;100805.09;;;5.22;64.28
15308;BME280;7755;52.208;6.964;2023-03-11T17:08:53;100788.69;;;5.10;63.39
15308;BME280;7755;52.208;6.964;2023-03-11T17:12:56;100792.81;;;5.06;64.28
15308;BME280;7755;52.208;6.964;2023-03-11T17:16:59;100806.91;;;5.02;65.54
15308;BME280;7755;52.208;6.964;2023-03-11T17:21:06;100792.38;;;4.96;66.34
15308;BME280;7755;52.208;6.964;2023-03-11T17:25:10;100804.16;;;4.88;65.60
15308;BME280;7755;52.208;6.964;2023-03-11T17:29:13;100809.91;;;4.79;65.86
15308;BME280;7755;52.208;6.964;2023-03-11T17:33:16;100808.22;;;4.71;66.87
15308;BME280;7755;52.208;6.964;2023-03-11T17:37:27;100800.69;;;4.60;67.26
15308;BME280;7755;52.208;6.964;2023-03-11T17:41:31;100809.53;;;4.54;67.86
15308;BME280;7755;52.208;6.964;2023-03-11T17:45:34;100812.41;;;4.46;69.40
15308;BME280;7755;52.208;6.964;2023-03-11T17:49:39;100816.28;;;4.36;71.96
15308;BME280;7755;52.208;6.964;2023-03-11T17:53:45;100817.44;;;4.21;72.95
15308;BME280;7755;52.208;6.964;2023-03-11T17:57:51;100821.69;;;4.08;72.78
15308;BME280;7755;52.208;6.964;2023-03-11T18:01:54;100818.47;;;3.98;72.55
15308;BME280;7755;52.208;6.964;2023-03-11T18:05:58;100821.31;;;3.90;72.79
15308;BME280;7755;52.208;6.964;2023-03-11T18:10:04;100834.06;;;3.81;75.02
15308;BME280;7755;52.208;6.964;2023-03-11T18:14:07;100830.88;;;3.71;76.66
15308;BME280;7755;52.208;6.964;2023-03-11T18:18:10;100840.03;;;3.55;78.89
15308;BME280;7755;52.208;6.964;2023-03-11T18:22:14;100832.84;;;3.41;80.21
15308;BME280;7755;52.208;6.964;2023-03-11T18:26:19;100834.38;;;3.29;81.88
15308;BME280;7755;52.208;6.964;2023-03-11T18:30:22;100833.38;;;3.15;83.18
15308;BME280;7755;52.208;6.964;2023-03-11T18:34:26;100839.22;;;3.04;85.56
15308;BME280;7755;52.208;6.964;2023-03-11T18:38:29;100840.75;;;2.92;85.75
15308;BME280;7755;52.208;6.964;2023-03-11T18:42:33;100829.25;;;2.83;87.13
15308;BME280;7755;52.208;6.964;2023-03-11T18:46:36;100827.06;;;2.72;86.98
15308;BME280;7755;52.208;6.964;2023-03-11T18:50:42;100840.56;;;2.64;87.50
15308;BME280;7755;52.208;6.964;2023-03-11T18:54:46;100833.28;;;2.58;88.17
15308;BME280;7755;52.208;6.964;2023-03-11T18:58:51;100836.22;;;2.48;88.83
15308;BME280;7755;52.208;6.964;2023-03-11T19:02:56;100849.72;;;2.40;89.63
15308;BME280;7755;52.208;6.964;2023-03-11T19:06:59;100852.31;;;2.33;89.96
15308;BME280;7755;52.208;6.964;2023-03-11T19:11:04;100855.91;;;2.26;90.51
15308;BME280;7755;52.208;6.964;2023-03-11T19:15:10;100849.81;;;2.17;91.02
15308;BME280;7755;52.208;6.964;2023-03-11T19:19:13;100850.88;;;2.08;91.89
15308;BME280;7755;52.208;6.964;2023-03-11T19:23:16;100849.28;;;1.99;93.20
15308;BME280;7755;52.208;6.964;2023-03-11T19:27:18;100840.31;;;1.91;93.96
15308;BME280;7755;52.208;6.964;2023-03-11T19:31:23;100839.50;;;1.83;94.49
15308;BME280;7755;52.208;6.964;2023-03-11T19:35:27;100848.13;;;1.78;94.95
15308;BME280;7755;52.208;6.964;2023-03-11T19:39:30;100855.50;;;1.76;95.04
15308;BME280;7755;52.208;6.964;2023-03-11T19:43:34;100854.19;;;1.72;95.30
15308;BME280;7755;52.208;6.964;2023-03-11T19:47:39;100840.88;;;1.64;95.92
15308;BME280;7755;52.208;6.964;2023-03-11T19:51:42;100853.75;;;1.60;96.58
15308;BME280;7755;52.208;6.964;2023-03-11T19:55:53;100844.44;;;1.56;97.03
15308;BME280;7755;52.208;6.964;2023-03-11T19:59:56;100849.94;;;1.55;97.10
15308;BME280;7755;52.208;6.964;2023-03-11T20:04:00;100849.31;;;1.53;97.52
15308;BME280;7755;52.208;6.964;2023-03-11T20:08:04;100850.13;;;1.53;98.00
15308;BME280;7755;52.208;6.964;2023-03-11T20:12:08;100858.81;;;1.55;98.28
15308;BME280;7755;52.208;6.964;2023-03-11T20:16:12;100856.88;;;1.49;98.14
15308;BME280;7755;52.208;6.964;2023-03-11T20:20:20;100864.72;;;1.51;97.96
15308;BME280;7755;52.208;6.964;2023-03-11T20:24:24;100858.16;;;1.53;98.67
15308;BME280;7755;52.208;6.964;2023-03-11T20:28:26;100863.00;;;1.58;99.12
15308;BME280;7755;52.208;6.964;2023-03-11T20:32:29;100853.75;;;1.60;99.20
15308;BME280;7755;52.208;6.964;2023-03-11T20:36:34;100863.47;;;1.61;99.46
15308;BME280;7755;52.208;6.964;2023-03-11T20:40:37;100853.59;;;1.62;100.00
15308;BME280;7755;52.208;6.964;2023-03-11T20:44:41;100865.13;;;1.62;100.00
15308;BME280;7755;52.208;6.964;2023-03-11T20:48:44;100866.97;;;1.62;100.00
15308;BME280;7755;52.208;6.964;2023-03-11T20:52:49;100859.50;;;1.57;100.00
15308;BME280;7755;52.208;6.964;2023-03-11T20:56:52;100858.81;;;1.55;100.00
15308;BME280;7755;52.208;6.964;2023-03-11T21:00:55;100863.72;;;1.52;100.00
15308;BME280;7755;52.208;6.964;2023-03-11T21:04:58;100867.94;;;1.46;100.00
15308;BME280;7755;52.208;6.964;2023-03-11T21:09:04;100865.97;;;1.40;100.00
15308;BME280;7755;52.208;6.964;2023-03-11T21:13:08;100870.03;;;1.36;100.00
15308;BME280;7755;52.208;6.964;2023-03-11T21:17:11;100867.03;;;1.31;99.88
15308;BME280;7755;52.208;6.964;2023-03-11T21:21:15;100871.41;;;1.24;100.00
15308;BME280;7755;52.208;6.964;2023-03-11T21:25:20;100863.44;;;1.16;100.00
15308;BME280;7755;52.208;6.964;2023-03-11T21:29:23;100870.50;;;1.08;100.00
15308;BME280;7755;52.208;6.964;2023-03-11T21:33:26;100869.16;;;1.04;100.00
15308;BME280;7755;52.208;6.964;2023-03-11T21:37:29;100872.34;;;1.00;100.00
15308;BME280;7755;52.208;6.964;2023-03-11T21:41:34;100869.03;;;0.98;100.00
15308;BME280;7755;52.208;6.964;2023-03-11T21:45:37;100874.91;;;0.93;100.00
15308;BME280;7755;52.208;6.964;2023-03-11T21:49:40;100879.78;;;0.90;100.00
15308;BME280;7755;52.208;6.964;2023-03-11T21:53:43;100865.72;;;0.88;100.00
15308;BME280;7755;52.208;6.964;2023-03-11T21:57:48;100870.22;;;0.87;100.00
15308;BME280;7755;52.208;6.964;2023-03-11T22:01:51;100871.25;;;0.86;100.00